Time;durP1;ratioP1;P1;durP2;ratioP2;P2;SDS_P1;SDS_P2;PMS_P1;PMS_P2;Temp;Humidity;BMP_temperature;BMP_pressure;BME280_temperature;BME280_humidity;BME280_pressure;Samples;Min_cycle;Max_cycle;Signal;HPM_P1;HPM_P2
2022/02/16 00:00:30;;;;;;;73.40;60.00;;;;;;;;;;5043758;23;20006;-85
2022/02/16 00:02:55;;;;;;;59.33;53.33;;;;;;;;;;5031790;28;20038;-84
2022/02/16 00:05:20;;;;;;;58.33;52.80;;;;;;;;;;5013331;28;20022;-85
2022/02/16 00:07:47;;;;;;;59.07;53.07;;;;;;;;;;5012147;28;20468;-84
2022/02/16 00:10:13;;;;;;;61.50;55.05;;;;;;;;;;5002502;28;20022;-84
2022/02/16 00:12:39;;;;;;;63.33;56.33;;;;;;;;;;5002204;28;20030;-85
2022/02/16 00:15:06;;;;;;;62.53;56.13;;;;;;;;;;4999217;28;20030;-84
2022/02/16 00:17:31;;;;;;;59.28;53.33;;;;;;;;;;4992824;28;20022;-84
2022/02/16 00:19:56;;;;;;;59.67;53.67;;;;;;;;;;4993530;28;20034;-84
2022/02/16 00:22:21;;;;;;;57.83;52.47;;;;;;;;;;5000204;28;20023;-85
2022/02/16 00:24:47;;;;;;;59.57;53.57;;;;;;;;;;4998700;28;20018;-85
2022/02/16 00:27:12;;;;;;;59.13;53.33;;;;;;;;;;4997741;28;20057;-85
2022/02/16 00:29:37;;;;;;;59.70;53.77;;;;;;;;;;4999319;28;20052;-85
2022/02/16 00:32:03;;;;;;;57.77;52.00;;;;;;;;;;5000303;28;20029;-88
2022/02/16 00:34:28;;;;;;;57.33;51.93;;;;;;;;;;4997823;28;20056;-85
2022/02/16 00:36:55;;;;;;;57.20;51.90;;;;;;;;;;5000359;28;20081;-87
2022/02/16 00:39:20;;;;;;;56.28;50.83;;;;;;;;;;5002085;28;20050;-86
2022/02/16 00:41:45;;;;;;;56.77;51.37;;;;;;;;;;5007348;28;20022;-85
2022/02/16 00:44:12;;;;;;;57.83;52.13;;;;;;;;;;4997882;28;20022;-86
2022/02/16 00:46:37;;;;;;;57.03;51.50;;;;;;;;;;4989197;28;20023;-86
2022/02/16 00:49:02;;;;;;;54.80;49.90;;;;;;;;;;4989769;28;20037;-87
2022/02/16 00:51:27;;;;;;;56.90;51.43;;;;;;;;;;4997923;28;20682;-86
2022/02/16 00:53:53;;;;;;;56.83;51.43;;;;;;;;;;5002227;28;20014;-86
2022/02/16 00:56:18;;;;;;;58.23;52.37;;;;;;;;;;5003858;28;20058;-86
2022/02/16 00:58:43;;;;;;;55.20;50.37;;;;;;;;;;5010156;28;20014;-85
2022/02/16 01:01:08;;;;;;;55.30;50.17;;;;;;;;;;5013051;28;20045;-85
2022/02/16 01:03:33;;;;;;;56.53;51.30;;;;;;;;;;5008451;28;20010;-85
2022/02/16 01:05:59;;;;;;;54.77;49.67;;;;;;;;;;5004104;28;20026;-85
2022/02/16 01:08:24;;;;;;;56.17;50.83;;;;;;;;;;4997473;28;20030;-85
2022/02/16 01:10:49;;;;;;;55.33;50.17;;;;;;;;;;4998235;28;20029;-82
2022/02/16 01:13:14;;;;;;;55.20;50.20;;;;;;;;;;4999716;28;20022;-82
2022/02/16 01:15:40;;;;;;;55.40;50.33;;;;;;;;;;4994789;28;20030;-83
2022/02/16 01:18:05;;;;;;;56.50;51.07;;;;;;;;;;4995494;28;20106;-83
2022/02/16 01:20:30;;;;;;;56.97;51.47;;;;;;;;;;4998704;28;20015;-84
2022/02/16 01:22:55;;;;;;;57.87;52.13;;;;;;;;;;4998725;28;20018;-84
2022/02/16 01:25:21;;;;;;;56.13;50.93;;;;;;;;;;4998208;28;20022;-86
2022/02/16 01:27:46;;;;;;;55.43;50.33;;;;;;;;;;4995523;28;20018;-86
2022/02/16 01:30:11;;;;;;;56.60;51.27;;;;;;;;;;4995673;28;20118;-86
2022/02/16 01:32:37;;;;;;;72.47;57.20;;;;;;;;;;4998458;28;20094;-88
2022/02/16 01:35:03;;;;;;;58.33;52.73;;;;;;;;;;4996131;28;20508;-85
2022/02/16 01:37:28;;;;;;;56.63;51.28;;;;;;;;;;4992044;28;20014;-88
2022/02/16 01:39:54;;;;;;;58.90;52.97;;;;;;;;;;4996701;28;20442;-85
2022/02/16 01:42:19;;;;;;;56.87;51.17;;;;;;;;;;4996922;28;20011;-86
2022/02/16 01:44:45;;;;;;;58.17;52.20;;;;;;;;;;4995366;28;20026;-86
2022/02/16 01:47:10;;;;;;;57.58;52.10;;;;;;;;;;4986506;28;20477;-85
2022/02/16 01:49:36;;;;;;;58.30;52.57;;;;;;;;;;4996516;28;20161;-86
2022/02/16 01:52:02;;;;;;;55.92;50.72;;;;;;;;;;4996300;28;20511;-85
2022/02/16 01:54:27;;;;;;;57.65;51.85;;;;;;;;;;4995767;28;20030;-85
2022/02/16 01:56:53;;;;;;;56.43;51.13;;;;;;;;;;4986057;28;20036;-85
2022/02/16 01:59:19;;;;;;;58.07;52.10;;;;;;;;;;4995963;28;20388;-86
2022/02/16 02:01:45;;;;;;;;;;;;;;;;;;4996715;28;20033;-85
2022/02/16 02:04:10;;;;;;;57.40;51.67;;;;;;;;;;4995759;28;19952;-87
2022/02/16 02:06:35;;;;;;;59.23;52.90;;;;;;;;;;4994867;28;20057;-87
2022/02/16 02:09:01;;;;;;;57.77;52.03;;;;;;;;;;4997000;28;20029;-88
2022/02/16 02:11:26;;;;;;;56.77;51.47;;;;;;;;;;4997976;28;20472;-85
2022/02/16 02:13:54;;;;;;;60.90;54.53;;;;;;;;;;4997654;28;20030;-85
2022/02/16 02:16:19;;;;;;;60.88;54.33;;;;;;;;;;4989192;28;20033;-84
2022/02/16 02:18:44;;;;;;;57.10;51.60;;;;;;;;;;4997861;28;20053;-84
2022/02/16 02:21:10;;;;;;;58.40;52.50;;;;;;;;;;4979793;28;20420;-84
2022/02/16 02:23:35;;;;;;;59.07;53.03;;;;;;;;;;4978907;28;20548;-82
2022/02/16 02:26:00;;;;;;;58.87;53.03;;;;;;;;;;4989482;28;20068;-85
2022/02/16 02:28:25;;;;;;;61.47;55.03;;;;;;;;;;4994309;28;20034;-83
2022/02/16 02:30:51;;;;;;;60.43;54.13;;;;;;;;;;4997493;28;20022;-83
2022/02/16 02:33:16;;;;;;;60.73;54.23;;;;;;;;;;4995427;28;20388;-83
2022/02/16 02:35:41;;;;;;;58.17;52.67;;;;;;;;;;4989474;28;20033;-83
2022/02/16 02:38:07;;;;;;;60.27;54.13;;;;;;;;;;4995706;28;20435;-83
2022/02/16 02:40:32;;;;;;;60.20;53.80;;;;;;;;;;4996175;28;20504;-84
2022/02/16 02:42:57;;;;;;;62.10;55.50;;;;;;;;;;4994867;28;20101;-83
2022/02/16 02:45:22;;;;;;;61.67;55.30;;;;;;;;;;4992939;28;20476;-83
2022/02/16 02:47:48;;;;;;;61.70;55.13;;;;;;;;;;4990601;28;20388;-83
2022/02/16 02:50:13;;;;;;;61.73;55.13;;;;;;;;;;5001774;28;20018;-85
2022/02/16 02:52:38;;;;;;;64.77;56.93;;;;;;;;;;5001235;28;20038;-84
2022/02/16 02:55:05;;;;;;;65.37;58.43;;;;;;;;;;5001195;28;20046;-86
2022/02/16 02:57:30;;;;;;;63.00;56.15;;;;;;;;;;5010244;28;20042;-84
2022/02/16 02:59:55;;;;;;;64.27;57.37;;;;;;;;;;5011425;28;20049;-84
2022/02/16 03:02:23;;;;;;;62.07;55.77;;;;;;;;;;5011006;28;20030;-84
2022/02/16 03:04:48;;;;;;;66.57;58.08;;;;;;;;;;5003842;28;20030;-83
2022/02/16 03:07:13;;;;;;;64.57;57.60;;;;;;;;;;5005548;28;20026;-85
2022/02/16 03:09:38;;;;;;;62.60;56.07;;;;;;;;;;5013913;28;20026;-85
2022/02/16 03:12:04;;;;;;;64.30;57.60;;;;;;;;;;5012895;28;20034;-84
2022/02/16 03:14:29;;;;;;;65.67;58.50;;;;;;;;;;5009631;28;20019;-85
2022/02/16 03:16:54;;;;;;;61.67;55.37;;;;;;;;;;4998986;28;20494;-86
2022/02/16 03:19:19;;;;;;;65.57;57.40;;;;;;;;;;4988979;28;20484;-86
2022/02/16 03:21:45;;;;;;;62.23;55.53;;;;;;;;;;5000914;28;20025;-85
2022/02/16 03:24:10;;;;;;;65.47;58.50;;;;;;;;;;5001600;28;20046;-84
2022/02/16 03:26:35;;;;;;;63.70;57.00;;;;;;;;;;4995854;28;20023;-84
2022/02/16 03:29:00;;;;;;;66.20;58.97;;;;;;;;;;4991589;28;20091;-84
2022/02/16 03:31:26;;;;;;;63.63;56.80;;;;;;;;;;5003294;28;20030;-84
2022/02/16 03:33:51;;;;;;;69.20;59.37;;;;;;;;;;5016088;28;20086;-85
2022/02/16 03:36:16;;;;;;;65.13;58.03;;;;;;;;;;5013292;28;20019;-84
2022/02/16 03:38:41;;;;;;;63.20;56.57;;;;;;;;;;5015610;28;20022;-83
2022/02/16 03:41:07;;;;;;;63.13;56.60;;;;;;;;;;5015816;28;20096;-84
2022/02/16 03:43:32;;;;;;;64.67;57.87;;;;;;;;;;5014392;28;20081;-84
2022/02/16 03:45:57;;;;;;;63.67;56.87;;;;;;;;;;5000799;28;20089;-84
2022/02/16 03:48:22;;;;;;;63.33;56.83;;;;;;;;;;5013135;28;20029;-86
2022/02/16 03:50:48;;;;;;;64.03;57.23;;;;;;;;;;5010667;28;20029;-86
2022/02/16 03:53:13;;;;;;;63.80;57.10;;;;;;;;;;5000361;28;20027;-86
2022/02/16 03:55:38;;;;;;;64.07;57.17;;;;;;;;;;4997281;28;20471;-87
2022/02/16 03:58:04;;;;;;;62.50;56.17;;;;;;;;;;4992964;28;20025;-87
2022/02/16 04:00:29;;;;;;;62.73;56.20;;;;;;;;;;4997207;28;20045;-88
2022/02/16 04:02:54;;;;;;;62.57;56.07;;;;;;;;;;4999762;28;20022;-86
2022/02/16 04:05:19;;;;;;;63.50;56.70;;;;;;;;;;5001035;28;20105;-85
2022/02/16 04:07:44;;;;;;;62.53;56.07;;;;;;;;;;4993478;28;20089;-85
2022/02/16 04:10:10;;;;;;;63.00;56.30;;;;;;;;;;4987940;28;20023;-84
2022/02/16 04:12:35;;;;;;;64.30;57.47;;;;;;;;;;4995182;28;20033;-86
2022/02/16 04:15:01;;;;;;;63.27;56.87;;;;;;;;;;4996011;28;20033;-84
2022/02/16 04:17:26;;;;;;;63.83;56.43;;;;;;;;;;4989479;28;20026;-85
2022/02/16 04:19:51;;;;;;;63.23;56.33;;;;;;;;;;4989047;28;20440;-83
2022/02/16 04:22:17;;;;;;;61.30;54.70;;;;;;;;;;4996864;28;20046;-84
2022/02/16 04:24:42;;;;;;;62.10;55.63;;;;;;;;;;4999863;28;20030;-85
2022/02/16 04:27:08;;;;;;;63.60;56.97;;;;;;;;;;4999207;28;20015;-84
2022/02/16 04:29:33;;;;;;;61.73;55.43;;;;;;;;;;5017910;28;20057;-83
2022/02/16 04:31:58;;;;;;;62.43;55.80;;;;;;;;;;5019083;28;20014;-84
2022/02/16 04:34:23;;;;;;;61.73;55.23;;;;;;;;;;5017180;28;20439;-86
2022/02/16 04:36:49;;;;;;;61.70;55.03;;;;;;;;;;5009491;28;20035;-84
2022/02/16 04:39:16;;;;;;;61.77;55.23;;;;;;;;;;4998296;28;20018;-84
2022/02/16 04:41:41;;;;;;;63.50;56.63;;;;;;;;;;5017240;28;20082;-85
2022/02/16 04:44:06;;;;;;;62.67;55.30;;;;;;;;;;5013244;28;20034;-85
2022/02/16 04:46:32;;;;;;;61.43;54.93;;;;;;;;;;4996396;28;20033;-84
2022/02/16 04:48:57;;;;;;;60.20;54.05;;;;;;;;;;5000708;28;20193;-83
2022/02/16 04:51:22;;;;;;;59.57;53.53;;;;;;;;;;5002968;28;20057;-84
2022/02/16 04:53:48;;;;;;;60.57;54.20;;;;;;;;;;5000728;28;20102;-83
2022/02/16 04:56:13;;;;;;;60.87;54.37;;;;;;;;;;4996347;28;20396;-84
2022/02/16 04:58:38;;;;;;;60.13;53.97;;;;;;;;;;4987771;28;20137;-87
2022/02/16 05:01:03;;;;;;;59.60;53.60;;;;;;;;;;5001341;28;20030;-83
2022/02/16 05:03:29;;;;;;;59.50;53.67;;;;;;;;;;5016681;28;20037;-84
2022/02/16 05:05:54;;;;;;;59.43;53.37;;;;;;;;;;5011874;28;20022;-84
2022/02/16 05:08:19;;;;;;;61.17;54.60;;;;;;;;;;4999182;28;20027;-83
2022/02/16 05:10:45;;;;;;;61.43;54.87;;;;;;;;;;5012098;28;20015;-84
2022/02/16 05:13:10;;;;;;;59.90;53.67;;;;;;;;;;5013825;28;20027;-85
2022/02/16 05:15:35;;;;;;;63.27;56.67;;;;;;;;;;5015960;28;20022;-85
2022/02/16 05:18:00;;;;;;;63.07;56.67;;;;;;;;;;5019010;28;20037;-85
2022/02/16 05:20:26;;;;;;;61.80;55.47;;;;;;;;;;5015226;28;20094;-83
2022/02/16 05:22:51;;;;;;;63.50;56.50;;;;;;;;;;5028012;28;20033;-84
2022/02/16 05:25:16;;;;;;;73.23;58.13;;;;;;;;;;5008456;28;20041;-82
2022/02/16 05:27:42;;;;;;;62.67;55.97;;;;;;;;;;5016865;28;20018;-84
2022/02/16 05:30:07;;;;;;;63.63;56.83;;;;;;;;;;5012573;28;20006;-85
2022/02/16 05:32:32;;;;;;;65.77;56.73;;;;;;;;;;5012834;28;20019;-84
2022/02/16 05:34:58;;;;;;;59.73;53.60;;;;;;;;;;5039549;23;20043;-85
2022/02/16 05:37:23;;;;;;;61.97;54.77;;;;;;;;;;5001328;28;20050;-84
2022/02/16 05:39:48;;;;;;;60.97;54.77;;;;;;;;;;5003641;28;20029;-85
2022/02/16 05:42:14;;;;;;;61.30;54.70;;;;;;;;;;5009865;28;20018;-84
2022/02/16 05:44:39;;;;;;;61.33;54.73;;;;;;;;;;5001700;28;20111;-86
2022/02/16 05:47:07;;;;;;;62.07;55.47;;;;;;;;;;5007099;28;20022;-86
2022/02/16 05:49:33;;;;;;;60.60;54.20;;;;;;;;;;5003267;28;20577;-84
2022/02/16 05:51:58;;;;;;;59.87;53.63;;;;;;;;;;5000499;28;20031;-85
2022/02/16 05:54:23;;;;;;;64.80;55.93;;;;;;;;;;4984503;28;20022;-84
2022/02/16 05:56:48;;;;;;;59.63;53.53;;;;;;;;;;4997469;28;20022;-86
2022/02/16 05:59:14;;;;;;;63.13;53.30;;;;;;;;;;4985557;28;20037;-84
2022/02/16 06:01:39;;;;;;;57.27;51.67;;;;;;;;;;5002623;28;20115;-84
2022/02/16 06:04:04;;;;;;;58.77;52.63;;;;;;;;;;5002924;28;20018;-85
2022/02/16 06:06:29;;;;;;;58.53;52.50;;;;;;;;;;5001926;28;20498;-85
2022/02/16 06:08:55;;;;;;;58.92;52.85;;;;;;;;;;5002295;28;20026;-84
2022/02/16 06:11:20;;;;;;;57.27;51.43;;;;;;;;;;5003536;28;20264;-83
2022/02/16 06:13:48;;;;;;;57.57;51.47;;;;;;;;;;5002798;28;20030;-84
2022/02/16 06:16:13;;;;;;;57.35;51.63;;;;;;;;;;5003698;28;20050;-82
2022/02/16 06:18:38;;;;;;;56.22;50.80;;;;;;;;;;4997248;28;20037;-85
2022/02/16 06:21:03;;;;;;;58.37;52.40;;;;;;;;;;5005272;28;20256;-85
2022/02/16 06:23:29;;;;;;;56.40;50.83;;;;;;;;;;5003734;28;20084;-84
2022/02/16 06:25:54;;;;;;;55.47;50.27;;;;;;;;;;5003788;28;20324;-84
2022/02/16 06:28:22;;;;;;;57.42;51.85;;;;;;;;;;4995516;28;20046;-85
2022/02/16 06:30:48;;;;;;;57.33;51.83;;;;;;;;;;5001890;28;20057;-85
2022/02/16 06:33:13;;;;;;;56.90;51.20;;;;;;;;;;5001814;28;20029;-85
2022/02/16 06:35:38;;;;;;;57.17;51.65;;;;;;;;;;5001210;28;20034;-84
2022/02/16 06:38:06;;;;;;;58.03;52.30;;;;;;;;;;5001185;28;20359;-84
2022/02/16 06:40:31;;;;;;;57.70;52.17;;;;;;;;;;5002987;28;20580;-84
2022/02/16 06:42:56;;;;;;;58.47;52.37;;;;;;;;;;5003534;28;20058;-84
2022/02/16 06:45:22;;;;;;;57.27;51.67;;;;;;;;;;5003330;28;20134;-84
2022/02/16 06:47:47;;;;;;;58.07;52.37;;;;;;;;;;4995819;28;20113;-85
2022/02/16 06:50:18;;;;;;;58.33;52.37;;;;;;;;;;5003654;28;20033;-84
2022/02/16 06:52:43;;;;;;;58.47;52.50;;;;;;;;;;5002976;28;20023;-86
2022/02/16 06:55:09;;;;;;;58.77;52.63;;;;;;;;;;5002259;28;20041;-85
2022/02/16 06:57:35;;;;;;;57.45;51.80;;;;;;;;;;5002261;28;20053;-84
2022/02/16 07:00:00;;;;;;;58.42;52.35;;;;;;;;;;5002896;28;20023;-84
2022/02/16 07:02:25;;;;;;;56.70;51.30;;;;;;;;;;5004478;28;20023;-85
2022/02/16 07:04:53;;;;;;;58.17;52.37;;;;;;;;;;5004721;28;20104;-84
2022/02/16 07:07:18;;;;;;;58.40;52.22;;;;;;;;;;4999076;28;20103;-84
2022/02/16 07:12:22;;;;;;;56.50;51.08;;;;;;;;;;4999531;23;20042;-83
2022/02/16 07:14:50;;;;;;;60.15;53.85;;;;;;;;;;4997063;28;20070;-84
2022/02/16 07:17:16;;;;;;;58.95;52.72;;;;;;;;;;4995011;28;20057;-85
2022/02/16 07:19:41;;;;;;;57.83;52.07;;;;;;;;;;4987629;28;20023;-86
2022/02/16 07:22:09;;;;;;;58.10;51.87;;;;;;;;;;4985556;28;20049;-85
2022/02/16 07:24:34;;;;;;;58.90;52.80;;;;;;;;;;4983472;28;20027;-86
2022/02/16 07:26:59;;;;;;;59.20;53.27;;;;;;;;;;4985598;28;20111;-86
2022/02/16 07:29:26;;;;;;;64.60;55.20;;;;;;;;;;4979534;28;20023;-87
2022/02/16 07:31:51;;;;;;;57.85;52.03;;;;;;;;;;4980949;28;20026;-86
2022/02/16 07:34:19;;;;;;;59.43;53.07;;;;;;;;;;4982626;28;20019;-84
2022/02/16 07:37:00;;;;;;;57.42;51.83;;;;;;;;;;4977156;28;20038;-85
2022/02/16 07:39:27;;;;;;;56.40;51.00;;;;;;;;;;4978909;28;20102;-85
2022/02/16 07:41:52;;;;;;;56.05;50.75;;;;;;;;;;4988937;28;20025;-86
2022/02/16 07:44:23;;;;;;;61.20;52.37;;;;;;;;;;4991618;28;20022;-86
2022/02/16 07:46:48;;;;;;;55.97;50.80;;;;;;;;;;4991265;28;20029;-85
2022/02/16 07:49:17;;;;;;;58.93;52.87;;;;;;;;;;4990188;28;20027;-86
2022/02/16 07:51:42;;;;;;;57.63;52.05;;;;;;;;;;4991744;28;20045;-85
2022/02/16 07:54:07;;;;;;;56.70;51.00;;;;;;;;;;4991319;28;20087;-87
2022/02/16 07:56:34;;;;;;;57.27;51.87;;;;;;;;;;4989290;28;20031;-87
2022/02/16 07:59:07;;;;;;;58.83;52.72;;;;;;;;;;4993347;28;20031;-88
2022/02/16 08:01:33;;;;;;;57.42;51.78;;;;;;;;;;4998915;28;20063;-86
2022/02/16 08:04:15;;;;;;;58.00;52.17;;;;;;;;;;4999170;28;20018;-86
2022/02/16 08:06:41;;;;;;;56.05;50.75;;;;;;;;;;4986190;28;20031;-87
2022/02/16 08:09:10;;;;;;;57.87;52.07;;;;;;;;;;4993354;28;20039;-88
2022/02/16 08:11:38;;;;;;;58.20;52.10;;;;;;;;;;4994022;28;20098;-87
2022/02/16 08:14:06;;;;;;;57.22;51.65;;;;;;;;;;4994845;28;20017;-88
2022/02/16 08:16:32;;;;;;;59.70;53.65;;;;;;;;;;4993882;28;20035;-87
2022/02/16 08:18:57;;;;;;;59.47;53.13;;;;;;;;;;4985502;28;20046;-87
2022/02/16 08:21:23;;;;;;;55.60;50.40;;;;;;;;;;4998664;28;20007;-87
2022/02/16 08:23:51;;;;;;;56.55;51.25;;;;;;;;;;4998633;28;20031;-87
2022/02/16 08:26:16;;;;;;;57.97;52.22;;;;;;;;;;4994220;28;20023;-87
2022/02/16 08:28:42;;;;;;;56.40;50.77;;;;;;;;;;4982781;28;20055;-85
2022/02/16 08:31:07;;;;;;;58.07;52.50;;;;;;;;;;4992362;28;20015;-85
2022/02/16 08:33:35;;;;;;;56.87;51.33;;;;;;;;;;4997396;28;20098;-87
2022/02/16 08:36:00;;;;;;;57.88;52.17;;;;;;;;;;4991850;28;20031;-86
2022/02/16 08:38:28;;;;;;;58.20;52.37;;;;;;;;;;4995594;28;20027;-86
2022/02/16 08:40:56;;;;;;;59.22;53.15;;;;;;;;;;4990145;28;20027;-86
2022/02/16 08:43:22;;;;;;;57.20;51.83;;;;;;;;;;4996746;28;20014;-87
2022/02/16 08:45:47;;;;;;;58.33;52.53;;;;;;;;;;4994349;28;20039;-88
2022/02/16 08:48:12;;;;;;;56.30;50.93;;;;;;;;;;4986252;28;20023;-87
2022/02/16 08:50:38;;;;;;;56.10;50.73;;;;;;;;;;4996606;28;20018;-86
2022/02/16 08:53:09;;;;;;;59.47;53.37;;;;;;;;;;4995346;28;20023;-85
2022/02/16 08:55:45;;;;;;;58.92;52.95;;;;;;;;;;4983821;28;20423;-84
2022/02/16 08:58:12;;;;;;;57.83;51.95;;;;;;;;;;4976561;28;20045;-84
2022/02/16 09:00:39;;;;;;;56.42;50.95;;;;;;;;;;4977998;28;20093;-86
2022/02/16 09:03:07;;;;;;;56.65;51.10;;;;;;;;;;4987327;28;20019;-86
2022/02/16 09:05:33;;;;;;;58.67;52.67;;;;;;;;;;4985921;28;20058;-86
2022/02/16 09:08:01;;;;;;;57.80;51.87;;;;;;;;;;4979825;28;20051;-86
2022/02/16 09:10:26;;;;;;;59.78;53.08;;;;;;;;;;4985891;28;20621;-86
2022/02/16 09:12:51;;;;;;;56.50;50.97;;;;;;;;;;4989456;28;20026;-86
2022/02/16 09:15:18;;;;;;;57.13;51.57;;;;;;;;;;4988094;28;20027;-85
2022/02/16 09:17:44;;;;;;;;;;;;;;;;;;4982574;28;20031;-86
2022/02/16 09:20:10;;;;;;;55.90;50.35;;;;;;;;;;5000916;28;19916;-87
2022/02/16 09:22:42;;;;;;;56.05;50.47;;;;;;;;;;4976178;29;20020;-85
2022/02/16 09:25:07;;;;;;;55.67;50.40;;;;;;;;;;4994316;28;20047;-86
2022/02/16 09:27:32;;;;;;;56.27;50.70;;;;;;;;;;4998711;28;20002;-85
2022/02/16 09:29:58;;;;;;;54.60;49.47;;;;;;;;;;4996284;28;20054;-85
2022/02/16 09:32:23;;;;;;;54.10;49.10;;;;;;;;;;4992030;28;20535;-85
2022/02/16 09:34:52;;;;;;;56.90;51.07;;;;;;;;;;4990801;28;20101;-85
2022/02/16 09:37:20;;;;;;;55.28;49.80;;;;;;;;;;4984509;28;20030;-83
2022/02/16 09:39:48;;;;;;;56.10;50.58;;;;;;;;;;4989812;28;20062;-80
2022/02/16 09:42:15;;;;;;;55.70;50.33;;;;;;;;;;4989400;28;20046;-83
2022/02/16 09:45:03;;;;;;;57.33;51.35;;;;;;;;;;5002930;28;20038;-79
2022/02/16 09:47:32;;;;;;;60.92;52.00;;;;;;;;;;4979621;28;20037;-81
2022/02/16 09:49:58;;;;;;;55.63;50.13;;;;;;;;;;4983375;28;20346;-80
2022/02/16 09:52:27;;;;;;;56.25;50.63;;;;;;;;;;4986350;28;20025;-80
2022/02/16 09:54:53;;;;;;;57.40;51.20;;;;;;;;;;4979611;28;20027;-82
2022/02/16 09:57:18;;;;;;;55.93;50.13;;;;;;;;;;4981255;28;20066;-82
2022/02/16 09:59:44;;;;;;;56.75;50.80;;;;;;;;;;4983787;28;20268;-85
2022/02/16 10:02:12;;;;;;;55.92;50.28;;;;;;;;;;4983543;28;20023;-85
2022/02/16 10:04:39;;;;;;;55.92;50.30;;;;;;;;;;4979502;28;20025;-86
2022/02/16 10:07:20;;;;;;;54.33;49.22;;;;;;;;;;4980333;28;20124;-86
2022/02/16 10:09:46;;;;;;;55.47;49.97;;;;;;;;;;4974419;28;20019;-86
2022/02/16 10:12:11;;;;;;;53.20;48.30;;;;;;;;;;4982566;28;20086;-85
2022/02/16 10:14:40;;;;;;;56.83;50.97;;;;;;;;;;4996712;28;20027;-85
2022/02/16 10:17:22;;;;;;;55.75;49.97;;;;;;;;;;4993136;28;20030;-84
2022/02/16 10:19:55;;;;;;;54.10;48.83;;;;;;;;;;4972570;28;20102;-83
2022/02/16 10:22:30;;;;;;;55.58;49.70;;;;;;;;;;4995540;28;20082;-84
2022/02/16 10:25:07;;;;;;;56.35;50.55;;;;;;;;;;4980009;28;20031;-84
2022/02/16 10:27:32;;;;;;;54.47;49.28;;;;;;;;;;4978567;28;20142;-82
2022/02/16 10:30:09;;;;;;;53.77;48.80;;;;;;;;;;4970913;28;20043;-83
2022/02/16 10:32:34;;;;;;;55.42;49.95;;;;;;;;;;4977936;28;20041;-82
2022/02/16 10:34:59;;;;;;;56.60;50.60;;;;;;;;;;4979856;28;20026;-83
2022/02/16 10:37:30;;;;;;;53.03;48.23;;;;;;;;;;4972985;28;20126;-81
2022/02/16 10:40:10;;;;;;;53.88;48.92;;;;;;;;;;4962087;28;20016;-81
2022/02/16 10:42:37;;;;;;;54.05;48.95;;;;;;;;;;4977515;28;20078;-84
2022/02/16 10:45:12;;;;;;;56.70;50.95;;;;;;;;;;4977829;28;20024;-83
2022/02/16 10:48:13;;;;;;;55.22;49.88;;;;;;;;;;4993610;28;20034;-82
2022/02/16 10:50:44;;;;;;;53.00;48.22;;;;;;;;;;4982033;28;20085;-81
2022/02/16 10:53:09;;;;;;;56.10;50.47;;;;;;;;;;4976777;28;20129;-83
2022/02/16 10:55:39;;;;;;;55.37;50.00;;;;;;;;;;4978056;28;20058;-83
2022/02/16 10:58:07;;;;;;;57.95;51.83;;;;;;;;;;4969003;28;20029;-82
2022/02/16 11:00:36;;;;;;;57.67;51.70;;;;;;;;;;4979358;28;20029;-81
2022/02/16 11:03:05;;;;;;;55.72;50.33;;;;;;;;;;4981307;28;20019;-83
2022/02/16 11:05:31;;;;;;;55.20;49.90;;;;;;;;;;4975819;28;20026;-83
2022/02/16 11:08:03;;;;;;;55.60;50.17;;;;;;;;;;4966855;28;20031;-84
2022/02/16 11:10:29;;;;;;;54.95;49.72;;;;;;;;;;4980222;28;20090;-85
2022/02/16 11:12:56;;;;;;;56.17;50.63;;;;;;;;;;4985767;28;20030;-86
2022/02/16 11:15:24;;;;;;;60.88;52.80;;;;;;;;;;4981915;28;20022;-86
2022/02/16 11:17:54;;;;;;;55.88;50.42;;;;;;;;;;4984211;28;20018;-85
2022/02/16 11:20:24;;;;;;;58.03;51.92;;;;;;;;;;4984883;28;20015;-85
2022/02/16 11:22:50;;;;;;;61.47;53.45;;;;;;;;;;4999550;28;20081;-86
2022/02/16 11:25:36;;;;;;;57.80;51.87;;;;;;;;;;5005176;28;20022;-87
2022/02/16 11:28:11;;;;;;;57.67;51.88;;;;;;;;;;4988997;28;20070;-87
2022/02/16 11:30:38;;;;;;;55.85;50.50;;;;;;;;;;4987819;28;20023;-86
2022/02/16 11:33:12;;;;;;;55.88;50.45;;;;;;;;;;5002609;28;20029;-87
2022/02/16 11:35:47;;;;;;;56.30;50.78;;;;;;;;;;5002972;28;20007;-85
2022/02/16 11:38:15;;;;;;;56.55;50.95;;;;;;;;;;4997464;28;20027;-87
2022/02/16 11:40:41;;;;;;;55.95;50.55;;;;;;;;;;4984866;28;20034;-86
2022/02/16 11:43:07;;;;;;;61.53;54.00;;;;;;;;;;4997428;23;20053;-89
2022/02/16 11:45:37;;;;;;;62.55;53.95;;;;;;;;;;4988695;28;20022;-87
2022/02/16 11:48:03;;;;;;;58.38;52.45;;;;;;;;;;4988298;28;20022;-87
2022/02/16 11:50:28;;;;;;;59.57;53.33;;;;;;;;;;4988320;28;20019;-86
2022/02/16 11:52:54;;;;;;;58.50;52.50;;;;;;;;;;5018900;28;20035;-87
2022/02/16 11:55:20;;;;;;;58.55;52.65;;;;;;;;;;4991759;28;20019;-87
2022/02/16 11:57:46;;;;;;;57.83;52.10;;;;;;;;;;4995784;28;20605;-86
2022/02/16 12:00:20;;;;;;;58.40;52.67;;;;;;;;;;4990660;28;20031;-86
2022/02/16 12:02:54;;;;;;;60.58;54.10;;;;;;;;;;4989866;28;20038;-86
2022/02/16 12:05:39;;;;;;;58.58;52.70;;;;;;;;;;4984722;28;20051;-87
2022/02/16 12:08:11;;;;;;;59.42;53.25;;;;;;;;;;4985236;28;20086;-87
2022/02/16 12:10:43;;;;;;;58.17;52.35;;;;;;;;;;4988217;28;20027;-87
2022/02/16 12:13:08;;;;;;;58.95;52.85;;;;;;;;;;4984866;28;20099;-87
2022/02/16 12:15:39;;;;;;;58.77;52.63;;;;;;;;;;4984481;28;20019;-88
2022/02/16 12:18:08;;;;;;;57.50;51.85;;;;;;;;;;5003084;28;20026;-87
2022/02/16 12:20:49;;;;;;;56.00;50.78;;;;;;;;;;4988272;28;20347;-91
2022/02/16 12:23:18;;;;;;;57.53;51.80;;;;;;;;;;5003891;28;20049;-88
2022/02/16 12:25:43;;;;;;;56.55;51.15;;;;;;;;;;4980209;28;20425;-87
2022/02/16 12:28:08;;;;;;;57.00;51.40;;;;;;;;;;4976688;28;20023;-86
2022/02/16 12:30:35;;;;;;;56.40;50.90;;;;;;;;;;4983661;28;20023;-86
2022/02/16 12:33:04;;;;;;;58.95;52.63;;;;;;;;;;4986132;28;20098;-85
2022/02/16 12:35:29;;;;;;;57.90;52.17;;;;;;;;;;4978700;28;20022;-84
2022/02/16 12:37:54;;;;;;;58.63;52.57;;;;;;;;;;4979690;28;20030;-83
2022/02/16 12:40:23;;;;;;;56.90;51.37;;;;;;;;;;4989735;28;20030;-84
2022/02/16 12:42:48;;;;;;;72.38;57.60;;;;;;;;;;5002614;23;20227;-78
2022/02/16 12:45:20;;;;;;;56.13;50.87;;;;;;;;;;5006902;28;20047;-81
2022/02/16 12:47:47;;;;;;;60.00;53.60;;;;;;;;;;4978613;28;20191;-81
2022/02/16 12:50:13;;;;;;;58.60;52.50;;;;;;;;;;4980755;28;20050;-81
2022/02/16 12:52:38;;;;;;;70.63;56.93;;;;;;;;;;4975128;28;20038;-78
2022/02/16 12:55:05;;;;;;;59.20;53.00;;;;;;;;;;4975567;28;20042;-80
2022/02/16 12:57:30;;;;;;;;;;;;;;;;;;4976667;28;20121;-78
2022/02/16 13:02:48;;;;;;;68.32;55.40;;;;;;;;;;4981129;28;20284;-78
2022/02/16 13:05:14;;;;;;;59.30;53.10;;;;;;;;;;4980016;28;20019;-81
2022/02/16 13:07:40;;;;;;;57.53;51.85;;;;;;;;;;4982752;28;20030;-82
2022/02/16 13:10:06;;;;;;;59.07;53.00;;;;;;;;;;4982636;28;20030;-81
2022/02/16 13:12:40;;;;;;;61.65;53.60;;;;;;;;;;4983910;28;20023;-79
2022/02/16 13:15:09;;;;;;;64.05;54.50;;;;;;;;;;4983235;28;20030;-80
2022/02/16 13:17:37;;;;;;;58.03;52.20;;;;;;;;;;4989613;28;20642;-79
2022/02/16 13:20:14;;;;;;;60.22;53.53;;;;;;;;;;4992874;28;20027;-82
2022/02/16 13:22:47;;;;;;;85.35;61.25;;;;;;;;;;4991413;28;20015;-81
2022/02/16 13:25:21;;;;;;;59.28;53.08;;;;;;;;;;4991079;28;20513;-80
2022/02/16 13:27:48;;;;;;;62.95;54.72;;;;;;;;;;4993668;28;20022;-81
2022/02/16 13:30:13;;;;;;;;;;;;;;;;;;4996037;28;20037;-80
2022/02/16 13:32:38;;;;;;;68.05;56.15;;;;;;;;;;4994480;28;19898;-81
2022/02/16 13:35:22;;;;;;;58.93;52.70;;;;;;;;;;4984243;28;20019;-78
2022/02/16 13:38:04;;;;;;;59.10;52.88;;;;;;;;;;4994331;28;20050;-80
2022/02/16 13:40:50;;;;;;;61.28;53.20;;;;;;;;;;4994099;28;20019;-80
2022/02/16 13:43:15;;;;;;;62.90;54.30;;;;;;;;;;4987948;28;20031;-79
2022/02/16 13:45:41;;;;;;;62.25;55.33;;;;;;;;;;4992177;28;20078;-82
2022/02/16 13:48:06;;;;;;;65.60;54.90;;;;;;;;;;4990511;28;20035;-81
2022/02/16 13:50:41;;;;;;;59.45;53.00;;;;;;;;;;4976763;28;20018;-80
2022/02/16 13:53:08;;;;;;;60.13;53.58;;;;;;;;;;4967793;28;20070;-80
2022/02/16 13:55:34;;;;;;;;;;;;;;;;;;4980243;28;20023;-79
2022/02/16 13:58:06;;;;;;;57.47;51.58;;;;;;;;;;4986098;28;19940;-80
2022/02/16 14:00:32;;;;;;;61.70;53.15;;;;;;;;;;4972242;28;20027;-80
2022/02/16 14:03:11;;;;;;;71.60;56.30;;;;;;;;;;4975092;28;20090;-79
2022/02/16 14:05:36;;;;;;;60.25;53.80;;;;;;;;;;4973924;28;20030;-79
2022/02/16 14:08:04;;;;;;;58.58;52.25;;;;;;;;;;4974340;28;20027;-81
2022/02/16 14:10:30;;;;;;;62.08;53.33;;;;;;;;;;4988787;28;20031;-83
2022/02/16 14:12:55;;;;;;;68.50;55.53;;;;;;;;;;4969359;28;20029;-81
2022/02/16 14:15:21;;;;;;;64.77;54.80;;;;;;;;;;4971402;28;20023;-81
2022/02/16 14:17:47;;;;;;;59.53;52.97;;;;;;;;;;4967465;28;20035;-81
2022/02/16 14:20:12;;;;;;;58.28;52.13;;;;;;;;;;4954472;29;20385;-81
2022/02/16 14:22:38;;;;;;;74.30;56.17;;;;;;;;;;4954999;28;20426;-81